createdAt,value
2022-10-13T00:00:47.759Z,77.74
2022-10-13T00:02:49.647Z,77.95
2022-10-13T00:04:51.279Z,77.80
2022-10-13T00:06:52.898Z,77.73
2022-10-13T00:08:55.041Z,78.21
2022-10-13T00:10:56.814Z,77.91
2022-10-13T00:12:58.767Z,78.26
2022-10-13T00:15:00.427Z,78.56
2022-10-13T00:17:02.086Z,78.93
2022-10-13T00:19:06.069Z,78.75
2022-10-13T00:21:13.269Z,79.01
2022-10-13T00:23:16.135Z,79.13
2022-10-13T00:25:17.941Z,79.00
2022-10-13T00:27:20.217Z,78.95
2022-10-13T00:29:22.061Z,78.97
2022-10-13T00:31:28.005Z,78.97
2022-10-13T00:33:29.862Z,78.88
2022-10-13T00:35:31.697Z,78.94
2022-10-13T00:37:33.408Z,79.24
2022-10-13T00:39:35.031Z,79.70
2022-10-13T00:41:36.776Z,79.34
2022-10-13T00:43:53.848Z,78.96
2022-10-13T00:45:55.467Z,79.16
2022-10-13T00:48:00.790Z,78.86
2022-10-13T00:50:03.103Z,79.08
2022-10-13T00:52:04.806Z,79.43
2022-10-13T00:54:09.734Z,79.45
2022-10-13T00:56:14.117Z,79.65
2022-10-13T00:58:19.542Z,79.76
2022-10-13T01:00:23.900Z,79.80
2022-10-13T01:02:31.584Z,79.81
2022-10-13T01:04:45.273Z,79.97
2022-10-13T01:06:46.921Z,79.51
2022-10-13T01:08:48.673Z,79.37
2022-10-13T01:11:05.655Z,80.41
2022-10-13T01:13:26.119Z,79.63
2022-10-13T01:16:01.594Z,79.63
2022-10-13T01:18:15.182Z,79.36
2022-10-13T01:20:54.635Z,79.16
2022-10-13T01:23:30.241Z,79.53
2022-10-13T01:26:33.306Z,79.60
2022-10-13T01:29:13.891Z,79.64
2022-10-13T01:31:40.338Z,80.02
2022-10-13T01:34:07.390Z,79.96
2022-10-13T01:36:26.807Z,79.89
2022-10-13T01:38:50.299Z,79.79
2022-10-13T01:41:05.670Z,79.81
2022-10-13T01:43:30.774Z,80.19
2022-10-13T01:45:38.808Z,80.14
2022-10-13T01:47:42.336Z,79.74
2022-10-13T01:49:45.253Z,79.86
2022-10-13T01:51:49.809Z,79.43
2022-10-13T01:53:51.658Z,79.23
2022-10-13T01:55:57.255Z,79.47
2022-10-13T01:57:59.004Z,79.47
2022-10-13T02:00:06.558Z,78.99
2022-10-13T02:02:22.526Z,78.97
2022-10-13T02:04:37.527Z,79.13
2022-10-13T02:06:52.076Z,79.23
2022-10-13T02:09:13.815Z,79.33
2022-10-13T02:11:21.569Z,79.86
2022-10-13T02:13:26.706Z,79.89
2022-10-13T02:15:35.359Z,80.04
2022-10-13T02:17:37.335Z,80.28
2022-10-13T02:19:40.248Z,80.37
2022-10-13T02:21:42.460Z,80.19
2022-10-13T02:23:45.454Z,79.91
2022-10-13T02:25:48.569Z,80.35
2022-10-13T02:27:50.662Z,80.19
2022-10-13T02:29:55.020Z,80.09
2022-10-13T02:31:56.733Z,79.73
2022-10-13T02:33:58.458Z,80.17
2022-10-13T02:36:00.112Z,80.19
2022-10-13T02:38:01.749Z,79.75
2022-10-13T02:40:04.037Z,79.57
2022-10-13T02:42:05.990Z,79.34
2022-10-13T02:44:07.837Z,79.37
2022-10-13T02:46:09.591Z,79.38
2022-10-13T02:48:11.232Z,79.70
2022-10-13T02:50:12.891Z,79.89
2022-10-13T02:52:14.818Z,79.82
2022-10-13T02:54:16.458Z,79.83
2022-10-13T02:56:19.281Z,79.21
2022-10-13T02:58:20.977Z,79.17
2022-10-13T03:00:22.700Z,79.41
2022-10-13T03:02:26.002Z,79.56
2022-10-13T03:04:27.700Z,79.91
2022-10-13T03:06:29.318Z,79.74
2022-10-13T03:08:33.324Z,79.84
2022-10-13T03:10:35.137Z,80.06
2022-10-13T03:12:36.875Z,80.01
2022-10-13T03:14:38.494Z,80.37
2022-10-13T03:16:40.161Z,80.36
2022-10-13T03:18:41.778Z,80.54
2022-10-13T03:20:43.461Z,80.43
2022-10-13T03:22:49.532Z,80.71
2022-10-13T03:24:51.971Z,80.38
2022-10-13T03:26:53.607Z,80.69
2022-10-13T03:28:55.203Z,80.53
2022-10-13T03:31:08.332Z,80.48
2022-10-13T03:33:09.970Z,80.72
2022-10-13T03:35:11.646Z,80.67
2022-10-13T03:37:13.385Z,80.93
2022-10-13T03:39:15.132Z,80.52
2022-10-13T03:41:18.832Z,80.91
2022-10-13T03:43:20.435Z,80.77
2022-10-13T03:45:22.141Z,80.68
2022-10-13T03:47:23.811Z,80.58
2022-10-13T03:49:25.587Z,80.88
2022-10-13T03:51:27.252Z,80.65
2022-10-13T03:53:28.927Z,81.04
2022-10-13T03:55:30.534Z,81.40
2022-10-13T03:57:32.197Z,80.67
2022-10-13T03:59:36.785Z,81.09
2022-10-13T04:01:39.636Z,81.44
2022-10-13T04:03:41.322Z,81.32
2022-10-13T04:05:43.673Z,81.19
2022-10-13T04:07:45.299Z,81.59
2022-10-13T04:09:46.971Z,81.34
2022-10-13T04:11:53.045Z,81.25
2022-10-13T04:13:56.825Z,81.31
2022-10-13T04:16:07.044Z,81.27
2022-10-13T04:18:09.224Z,80.69
2022-10-13T04:20:11.242Z,80.61
2022-10-13T04:22:12.853Z,80.75
2022-10-13T04:24:15.046Z,80.86
2022-10-13T04:26:19.664Z,80.70
2022-10-13T04:28:21.418Z,80.68
2022-10-13T04:30:23.058Z,80.64
2022-10-13T04:32:24.941Z,80.56
2022-10-13T04:34:26.551Z,80.87
2022-10-13T04:36:28.323Z,80.61
2022-10-13T04:38:30.041Z,80.69
2022-10-13T04:40:31.878Z,80.77
2022-10-13T04:42:34.106Z,80.92
2022-10-13T04:44:35.749Z,81.01
2022-10-13T04:46:37.362Z,81.45
2022-10-13T04:48:39.211Z,81.89
2022-10-13T04:50:40.996Z,81.36
2022-10-13T04:52:42.616Z,81.58
2022-10-13T04:54:44.535Z,81.77
2022-10-13T04:56:46.378Z,81.78
2022-10-13T04:58:48.213Z,82.01
2022-10-13T05:00:50.204Z,81.60
2022-10-13T05:02:51.908Z,81.86
2022-10-13T05:04:53.559Z,81.68
2022-10-13T05:07:19.209Z,82.04
2022-10-13T05:09:17.670Z,82.17
2022-10-13T05:11:22.526Z,82.18
2022-10-13T05:13:25.164Z,82.42
2022-10-13T05:15:26.935Z,82.05
2022-10-13T05:17:35.019Z,82.58
2022-10-13T05:19:37.204Z,82.11
2022-10-13T05:21:39.127Z,82.19
2022-10-13T05:23:42.135Z,82.24
2022-10-13T05:25:43.816Z,82.17
2022-10-13T05:27:47.326Z,82.31
2022-10-13T05:29:48.945Z,82.01
2022-10-13T05:31:50.591Z,82.10
2022-10-13T05:33:52.901Z,81.98
2022-10-13T05:35:54.531Z,81.74
2022-10-13T05:37:56.237Z,81.66
2022-10-13T05:39:57.897Z,82.02
2022-10-13T05:41:59.557Z,81.53
2022-10-13T05:44:04.276Z,81.60
2022-10-13T05:46:06.564Z,81.54
2022-10-13T05:48:08.347Z,81.78
2022-10-13T05:50:10.240Z,81.47
2022-10-13T05:52:12.924Z,80.76
2022-10-13T05:54:21.659Z,80.71
2022-10-13T05:56:27.206Z,80.83
2022-10-13T05:58:28.866Z,81.30
2022-10-13T06:00:30.637Z,81.29
2022-10-13T06:02:37.867Z,81.36
2022-10-13T06:04:44.450Z,81.68
2022-10-13T06:06:48.508Z,81.68
2022-10-13T06:08:51.051Z,81.87
2022-10-13T06:10:52.900Z,81.69
2022-10-13T06:12:54.680Z,81.63
2022-10-13T06:14:56.471Z,81.49
2022-10-13T06:16:58.136Z,81.36
2022-10-13T06:19:07.123Z,81.02
2022-10-13T06:21:08.844Z,81.46
2022-10-13T06:23:10.629Z,81.13
2022-10-13T06:25:12.320Z,81.18
2022-10-13T06:27:14.312Z,81.02
2022-10-13T06:29:15.999Z,81.36
2022-10-13T06:31:17.792Z,80.93
2022-10-13T06:33:20.862Z,80.68
2022-10-13T06:35:23.748Z,80.50
2022-10-13T06:37:27.493Z,80.47
2022-10-13T06:39:29.318Z,80.07
2022-10-13T06:41:30.943Z,80.47
2022-10-13T06:43:39.906Z,79.96
2022-10-13T06:45:41.985Z,79.96
2022-10-13T06:47:44.098Z,79.95
2022-10-13T06:49:45.860Z,80.03
2022-10-13T06:51:47.547Z,80.27
2022-10-13T06:53:49.344Z,80.23
2022-10-13T06:55:52.586Z,80.38
2022-10-13T06:57:54.398Z,80.30
2022-10-13T06:59:56.163Z,80.58
2022-10-13T07:01:57.894Z,80.42
2022-10-13T07:03:59.617Z,80.40
2022-10-13T07:06:05.987Z,80.83
2022-10-13T07:08:07.618Z,80.86
2022-10-13T07:10:10.281Z,80.84
2022-10-13T07:12:13.676Z,80.95
2022-10-13T07:14:15.352Z,80.95
2022-10-13T07:16:17.083Z,81.24
2022-10-13T07:18:18.766Z,81.63
2022-10-13T07:20:21.784Z,81.34
2022-10-13T07:22:23.405Z,81.51
2022-10-13T07:24:25.657Z,81.52
2022-10-13T07:26:27.369Z,81.28
2022-10-13T07:28:29.296Z,81.29
2022-10-13T07:30:31.001Z,81.72
2022-10-13T07:32:32.943Z,81.85
2022-10-13T07:34:34.698Z,81.82
2022-10-13T07:36:37.856Z,81.54
2022-10-13T07:38:40.299Z,81.05
2022-10-13T07:40:41.960Z,81.72
2022-10-13T07:42:43.561Z,81.03
2022-10-13T07:44:45.272Z,81.45
2022-10-13T07:46:46.902Z,80.72
2022-10-13T07:48:48.707Z,80.85
2022-10-13T07:50:50.456Z,81.10
2022-10-13T07:52:52.108Z,80.96
2022-10-13T07:54:54.170Z,81.21
2022-10-13T07:56:56.258Z,80.81
2022-10-13T07:59:09.753Z,80.68
2022-10-13T08:01:12.799Z,80.62
2022-10-13T08:03:14.463Z,80.27
2022-10-13T08:05:16.244Z,80.20
2022-10-13T08:07:18.256Z,80.21
2022-10-13T08:09:20.229Z,80.90
2022-10-13T08:11:21.909Z,79.68
2022-10-13T08:13:24.469Z,79.97
2022-10-13T08:15:26.116Z,79.03
2022-10-13T08:17:27.823Z,78.32
2022-10-13T08:19:29.509Z,78.69
2022-10-13T08:23:52.800Z,77.99
2022-10-13T08:25:54.568Z,78.09
2022-10-13T08:28:00.294Z,78.57
2022-10-13T08:30:02.385Z,77.99
2022-10-13T08:32:04.259Z,76.97
2022-10-13T08:34:05.894Z,77.14
2022-10-13T08:36:08.790Z,76.24
2022-10-13T08:38:10.618Z,76.67
2022-10-13T08:40:17.676Z,76.89
2022-10-13T08:42:22.451Z,76.94
2022-10-13T08:45:21.779Z,76.70
2022-10-13T08:47:08.408Z,76.71
2022-10-13T08:49:18.233Z,75.81
2022-10-13T08:51:20.384Z,76.28
2022-10-13T08:53:29.696Z,75.45
2022-10-13T08:56:13.115Z,75.95
2022-10-13T08:58:17.295Z,75.99
2022-10-13T09:00:19.005Z,75.71
2022-10-13T09:02:31.078Z,75.78
2022-10-13T09:04:41.147Z,76.00
2022-10-13T09:07:07.967Z,75.81
2022-10-13T09:09:16.848Z,75.50
2022-10-13T09:11:18.760Z,75.64
2022-10-13T09:13:20.822Z,75.40
2022-10-13T09:15:22.511Z,75.23
2022-10-13T09:17:28.995Z,74.70
2022-10-13T09:19:36.611Z,74.68
2022-10-13T09:21:38.531Z,75.31
2022-10-13T09:23:41.954Z,75.45
2022-10-13T09:25:49.425Z,75.52
2022-10-13T09:27:53.712Z,75.39
2022-10-13T09:29:55.343Z,76.12
2022-10-13T09:32:20.344Z,76.30
2022-10-13T09:34:24.184Z,76.42
2022-10-13T09:36:25.894Z,76.27
2022-10-13T09:38:28.195Z,76.60
2022-10-13T09:40:32.462Z,76.22
2022-10-13T09:42:34.283Z,76.36
2022-10-13T09:44:36.014Z,76.12
2022-10-13T09:46:51.738Z,76.31
2022-10-13T09:49:19.257Z,76.00
2022-10-13T09:51:42.895Z,76.06
2022-10-13T09:53:47.650Z,76.03
2022-10-13T09:55:49.769Z,76.12
2022-10-13T09:57:55.469Z,75.88
2022-10-13T10:00:21.516Z,76.29
2022-10-13T10:02:45.671Z,76.28
2022-10-13T10:04:47.515Z,75.83
2022-10-13T10:06:49.176Z,75.77
2022-10-13T10:09:33.275Z,76.48
2022-10-13T10:11:43.490Z,76.29
2022-10-13T10:13:45.177Z,76.43
2022-10-13T10:15:55.952Z,76.21
2022-10-13T10:18:03.765Z,76.82
2022-10-13T10:20:41.067Z,76.30
2022-10-13T10:23:08.083Z,76.63
2022-10-13T10:25:40.345Z,76.41
2022-10-13T10:27:59.751Z,75.77
2022-10-13T10:30:05.964Z,75.99
2022-10-13T10:32:25.900Z,75.66
2022-10-13T10:34:35.024Z,75.82
2022-10-13T10:36:53.264Z,76.23
2022-10-13T10:39:31.049Z,75.97
2022-10-13T10:41:47.824Z,75.81
2022-10-13T10:44:11.359Z,75.79
2022-10-13T10:46:21.615Z,76.06
2022-10-13T10:48:27.072Z,75.93
2022-10-13T10:50:30.929Z,76.08
2022-10-13T10:52:56.528Z,76.09
2022-10-13T10:55:18.001Z,75.88
2022-10-13T10:57:28.542Z,75.90
2022-10-13T10:59:36.315Z,76.17
2022-10-13T11:01:42.726Z,75.56
2022-10-13T11:03:58.486Z,76.19
2022-10-13T11:06:00.133Z,76.33
2022-10-13T11:08:01.829Z,76.32
2022-10-13T11:10:27.460Z,75.64
2022-10-13T11:12:50.639Z,74.87
2022-10-13T11:14:55.091Z,75.36
2022-10-13T11:17:03.624Z,75.15
2022-10-13T11:19:23.657Z,75.24
2022-10-13T11:21:26.287Z,74.73
2022-10-13T11:23:32.898Z,74.16
2022-10-13T11:25:41.975Z,74.63
2022-10-13T11:27:44.321Z,73.84
2022-10-13T11:29:57.969Z,74.31
2022-10-13T11:31:59.801Z,74.51
2022-10-13T11:34:02.189Z,74.19
2022-10-13T11:36:28.381Z,74.44
2022-10-13T11:38:37.116Z,73.54
2022-10-13T11:40:47.808Z,72.69
2022-10-13T11:43:27.701Z,72.50
2022-10-13T11:45:58.365Z,72.68
2022-10-13T11:48:21.501Z,72.87
2022-10-13T11:50:52.212Z,72.37
2022-10-13T11:53:18.750Z,73.04
2022-10-13T11:55:31.003Z,72.36
2022-10-13T11:57:33.021Z,72.24
2022-10-13T11:59:37.729Z,71.08
2022-10-13T12:01:44.336Z,69.74
2022-10-13T12:03:47.601Z,68.28
2022-10-13T12:05:51.944Z,67.53
2022-10-13T12:07:57.468Z,67.34
2022-10-13T12:10:28.961Z,66.39
2022-10-13T12:12:32.387Z,67.02
2022-10-13T12:14:45.801Z,67.47
2022-10-13T12:16:57.860Z,65.77
2022-10-13T12:19:26.117Z,65.02
2022-10-13T12:21:28.928Z,65.33
2022-10-13T12:23:32.641Z,64.13
2022-10-13T12:25:34.330Z,63.99
2022-10-13T12:27:47.339Z,61.87
2022-10-13T12:29:49.007Z,61.22
2022-10-13T12:31:51.937Z,61.37
2022-10-13T12:33:59.015Z,60.39
2022-10-13T12:36:17.061Z,59.78
2022-10-13T12:38:21.100Z,59.73
2022-10-13T12:40:27.175Z,59.14
2022-10-13T12:42:34.870Z,58.29
2022-10-13T12:44:37.030Z,57.57
2022-10-13T12:46:43.008Z,57.65
2022-10-13T12:48:45.275Z,58.27
2022-10-13T12:50:47.009Z,56.32
2022-10-13T12:52:50.553Z,55.35
2022-10-13T12:54:57.871Z,55.89
2022-10-13T12:57:04.247Z,55.19
2022-10-13T12:59:25.797Z,55.36
2022-10-13T13:01:30.938Z,56.25
2022-10-13T13:03:32.965Z,56.89
2022-10-13T13:05:40.811Z,56.98
2022-10-13T13:07:52.675Z,57.32
2022-10-13T13:10:19.181Z,57.49
2022-10-13T13:12:23.717Z,57.49
2022-10-13T13:14:38.581Z,57.82
2022-10-13T13:16:40.320Z,57.06
2022-10-13T13:18:44.752Z,57.13
2022-10-13T13:20:46.423Z,55.77
2022-10-13T13:22:48.206Z,54.57
2022-10-13T13:24:51.186Z,54.49
2022-10-13T13:26:53.478Z,54.44
2022-10-13T13:28:56.441Z,53.93
2022-10-13T13:30:58.750Z,54.28
2022-10-13T13:33:00.456Z,54.17
2022-10-13T13:35:02.128Z,55.07
2022-10-13T13:37:03.740Z,55.07
2022-10-13T13:39:16.381Z,55.51
2022-10-13T13:41:18.403Z,53.85
2022-10-13T13:43:20.126Z,53.75
2022-10-13T13:45:25.000Z,53.95
2022-10-13T13:47:28.999Z,53.76
2022-10-13T13:49:30.759Z,53.19
2022-10-13T13:51:32.444Z,53.11
2022-10-13T13:53:34.064Z,52.08
2022-10-13T13:55:35.918Z,51.92
2022-10-13T13:57:37.578Z,52.08
2022-10-13T13:59:40.768Z,51.88
2022-10-13T14:01:42.462Z,51.23
2022-10-13T14:03:44.190Z,51.48
2022-10-13T14:05:45.842Z,51.14
2022-10-13T14:07:47.467Z,51.14
2022-10-13T14:09:49.155Z,51.25
2022-10-13T14:11:50.871Z,50.46
2022-10-13T14:13:52.446Z,50.45
2022-10-13T14:16:01.428Z,50.87
2022-10-13T14:18:03.088Z,51.06
2022-10-13T14:20:05.234Z,50.60
2022-10-13T14:22:09.480Z,50.69
2022-10-13T14:24:11.687Z,50.73
2022-10-13T14:26:14.292Z,50.20
2022-10-13T14:28:18.207Z,50.48
2022-10-13T14:30:20.320Z,49.21
2022-10-13T14:32:22.484Z,49.33
2022-10-13T14:34:24.689Z,48.56
2022-10-13T14:36:26.369Z,48.85
2022-10-13T14:38:28.359Z,49.23
2022-10-13T14:40:30.002Z,48.85
2022-10-13T14:42:31.665Z,49.13
2022-10-13T14:44:34.474Z,48.96
2022-10-13T14:46:36.096Z,48.67
2022-10-13T14:48:37.900Z,48.48
2022-10-13T14:50:39.555Z,48.05
2022-10-13T14:52:41.164Z,48.41
2022-10-13T14:54:44.982Z,48.59
2022-10-13T14:56:46.923Z,49.25
2022-10-13T14:58:50.087Z,48.56
2022-10-13T15:00:53.617Z,48.81
2022-10-13T15:02:55.242Z,48.49
2022-10-13T15:04:57.934Z,47.65
2022-10-13T15:06:59.657Z,47.79
2022-10-13T15:09:12.951Z,47.34
2022-10-13T15:11:15.465Z,47.34
2022-10-13T15:13:17.165Z,47.10
2022-10-13T15:15:19.830Z,47.62
2022-10-13T15:17:21.475Z,47.25
2022-10-13T15:19:23.214Z,47.13
2022-10-13T15:21:25.475Z,47.54
2022-10-13T15:23:27.166Z,47.12
2022-10-13T15:25:28.773Z,47.55
2022-10-13T15:27:30.482Z,48.24
2022-10-13T15:29:32.161Z,48.08
2022-10-13T15:31:33.849Z,47.34
2022-10-13T15:33:35.723Z,47.67
2022-10-13T15:35:37.360Z,47.13
2022-10-13T15:37:39.023Z,47.02
2022-10-13T15:39:40.624Z,46.99
2022-10-13T15:41:42.456Z,47.15
2022-10-13T15:43:44.347Z,46.92
2022-10-13T15:45:55.550Z,47.02
2022-10-13T15:47:57.808Z,47.42
2022-10-13T15:49:59.420Z,48.41
2022-10-13T15:52:01.060Z,46.85
2022-10-13T15:54:02.731Z,47.21
2022-10-13T15:56:04.444Z,46.97
2022-10-13T15:58:10.086Z,46.75
2022-10-13T16:00:16.041Z,46.67
2022-10-13T16:02:18.010Z,47.03
2022-10-13T16:04:19.941Z,46.77
2022-10-13T16:06:22.536Z,46.66
2022-10-13T16:08:24.189Z,47.36
2022-10-13T16:10:39.427Z,47.26
2022-10-13T16:12:46.844Z,47.31
2022-10-13T16:14:51.570Z,47.81
2022-10-13T16:16:53.270Z,48.05
2022-10-13T16:18:55.040Z,48.06
2022-10-13T16:20:57.061Z,48.47
2022-10-13T16:22:58.784Z,48.79
2022-10-13T16:25:00.437Z,49.33
2022-10-13T16:27:02.137Z,49.76
2022-10-13T16:29:06.922Z,49.44
2022-10-13T16:31:13.996Z,49.31
2022-10-13T16:33:15.680Z,49.76
2022-10-13T16:35:17.535Z,49.49
2022-10-13T16:37:19.731Z,50.06
2022-10-13T16:39:23.866Z,49.92
2022-10-13T16:41:25.876Z,49.99
2022-10-13T16:43:29.455Z,50.11
2022-10-13T16:45:55.071Z,50.01
2022-10-13T16:47:53.018Z,50.13
2022-10-13T16:49:54.687Z,50.89
2022-10-13T16:51:56.428Z,51.35
2022-10-13T16:54:03.862Z,51.55
2022-10-13T16:56:07.935Z,51.60
2022-10-13T16:58:10.088Z,51.37
2022-10-13T17:00:12.617Z,51.79
2022-10-13T17:02:15.247Z,51.46
2022-10-13T17:04:21.883Z,51.24
2022-10-13T17:06:26.898Z,51.42
2022-10-13T17:08:30.198Z,51.55
2022-10-13T17:10:31.865Z,51.27
2022-10-13T17:12:33.939Z,52.64
2022-10-13T17:14:35.652Z,52.17
2022-10-13T17:16:37.310Z,52.67
2022-10-13T17:18:38.945Z,52.34
2022-10-13T17:20:41.274Z,52.13
2022-10-13T17:22:42.916Z,51.92
2022-10-13T17:24:48.584Z,51.92
2022-10-13T17:26:50.349Z,52.44
2022-10-13T17:28:52.179Z,52.72
2022-10-13T17:31:02.291Z,53.00
2022-10-13T17:33:04.625Z,53.09
2022-10-13T17:35:07.675Z,53.47
2022-10-13T17:37:09.367Z,53.67
2022-10-13T17:39:14.337Z,53.62
2022-10-13T17:41:16.687Z,54.08
2022-10-13T17:43:18.379Z,54.20
2022-10-13T17:45:20.066Z,54.47
2022-10-13T17:47:21.866Z,54.63
2022-10-13T17:49:24.286Z,54.68
2022-10-13T17:51:26.002Z,54.71
2022-10-13T17:53:27.663Z,54.77
2022-10-13T17:55:30.781Z,54.82
2022-10-13T17:57:32.421Z,55.05
2022-10-13T17:59:34.081Z,54.85
2022-10-13T18:01:36.066Z,54.98
2022-10-13T18:03:39.070Z,55.02
2022-10-13T18:05:43.574Z,55.32
2022-10-13T18:07:45.202Z,55.48
2022-10-13T18:09:46.832Z,55.60
2022-10-13T18:11:50.943Z,55.87
2022-10-13T18:13:52.923Z,55.61
2022-10-13T18:15:54.620Z,55.82
2022-10-13T18:17:56.340Z,55.81
2022-10-13T18:19:58.685Z,56.03
2022-10-13T18:22:00.286Z,56.22
2022-10-13T18:24:02.579Z,56.58
2022-10-13T18:26:07.247Z,57.08
2022-10-13T18:28:08.884Z,57.05
2022-10-13T18:30:11.080Z,57.47
2022-10-13T18:32:12.729Z,57.57
2022-10-13T18:34:17.034Z,58.15
2022-10-13T18:36:23.437Z,58.24
2022-10-13T18:38:26.417Z,58.56
2022-10-13T18:40:28.610Z,58.74
2022-10-13T18:42:30.556Z,58.75
2022-10-13T18:44:32.179Z,59.06
2022-10-13T18:46:35.961Z,60.01
2022-10-13T18:48:37.681Z,60.19
2022-10-13T18:50:39.293Z,60.32
2022-10-13T18:52:40.891Z,60.39
2022-10-13T18:54:42.556Z,60.35
2022-10-13T18:56:44.230Z,60.71
2022-10-13T18:58:46.416Z,60.91
2022-10-13T19:00:48.084Z,61.43
2022-10-13T19:02:51.847Z,61.52
2022-10-13T19:04:53.534Z,61.55
2022-10-13T19:06:55.176Z,62.08
2022-10-13T19:09:09.498Z,61.93
2022-10-13T19:11:16.217Z,62.20
2022-10-13T19:13:18.062Z,61.88
2022-10-13T19:15:19.681Z,62.10
2022-10-13T19:17:21.539Z,62.55
2022-10-13T19:19:23.448Z,62.40
2022-10-13T19:21:25.215Z,62.61
2022-10-13T19:23:26.932Z,62.93
2022-10-13T19:25:28.615Z,63.05
2022-10-13T19:27:30.300Z,63.36
2022-10-13T19:29:32.848Z,63.56
2022-10-13T19:31:36.187Z,63.89
2022-10-13T19:33:44.275Z,63.42
2022-10-13T19:35:49.104Z,63.85
2022-10-13T19:37:50.848Z,64.47
2022-10-13T19:39:52.470Z,64.33
2022-10-13T19:41:56.559Z,64.39
2022-10-13T19:43:59.283Z,64.24
2022-10-13T19:46:01.246Z,64.12
2022-10-13T19:48:02.930Z,64.31
2022-10-13T19:50:04.825Z,64.59
2022-10-13T19:52:06.564Z,64.62
2022-10-13T19:54:08.723Z,64.78
2022-10-13T19:56:23.024Z,64.85
2022-10-13T19:58:24.673Z,64.96
2022-10-13T20:00:26.384Z,64.96
2022-10-13T20:02:28.023Z,65.04
2022-10-13T20:04:29.751Z,65.32
2022-10-13T20:06:31.396Z,65.84
2022-10-13T20:08:33.402Z,65.89
2022-10-13T20:10:40.963Z,66.36
2022-10-13T20:12:42.654Z,66.07
2022-10-13T20:14:44.288Z,66.18
2022-10-13T20:16:45.976Z,66.79
2022-10-13T20:18:52.727Z,66.63
2022-10-13T20:20:54.383Z,66.56
2022-10-13T20:22:56.044Z,66.53
2022-10-13T20:24:57.897Z,66.93
2022-10-13T20:26:59.527Z,67.01
2022-10-13T20:29:07.592Z,67.31
2022-10-13T20:31:10.734Z,67.18
2022-10-13T20:33:12.386Z,67.29
2022-10-13T20:35:14.140Z,67.67
2022-10-13T20:37:16.203Z,67.72
2022-10-13T20:39:17.925Z,67.53
2022-10-13T20:41:22.491Z,68.20
2022-10-13T20:43:25.912Z,68.03
2022-10-13T20:45:27.639Z,68.03
2022-10-13T20:47:29.253Z,67.53
2022-10-13T20:49:30.945Z,67.20
2022-10-13T20:51:32.597Z,67.72
2022-10-13T20:53:35.977Z,67.54
2022-10-13T20:55:41.757Z,67.92
2022-10-13T20:57:43.620Z,67.85
2022-10-13T20:59:45.280Z,67.97
2022-10-13T21:01:46.942Z,68.02
2022-10-13T21:03:54.933Z,68.26
2022-10-13T21:05:57.283Z,68.16
2022-10-13T21:07:58.970Z,68.42
2022-10-13T21:10:00.569Z,68.03
2022-10-13T21:12:02.211Z,67.97
2022-10-13T21:14:06.932Z,67.99
2022-10-13T21:16:11.324Z,67.76
2022-10-13T21:18:13.962Z,68.12
2022-10-13T21:20:15.710Z,68.27
2022-10-13T21:22:17.359Z,68.21
2022-10-13T21:24:18.964Z,67.89
2022-10-13T21:26:22.473Z,67.60
2022-10-13T21:28:24.266Z,67.67
2022-10-13T21:30:26.893Z,67.95
2022-10-13T21:32:30.296Z,67.91
2022-10-13T21:34:31.962Z,67.86
2022-10-13T21:36:34.244Z,67.20
2022-10-13T21:38:36.214Z,67.28
2022-10-13T21:40:38.177Z,67.23
2022-10-13T21:42:39.965Z,67.26
2022-10-13T21:44:41.768Z,67.21
2022-10-13T21:46:43.480Z,67.21
2022-10-13T21:48:46.655Z,67.69
2022-10-13T21:50:48.336Z,67.86
2022-10-13T21:52:49.978Z,68.17
2022-10-13T21:54:52.517Z,68.40
2022-10-13T21:56:54.143Z,68.07
2022-10-13T21:58:56.198Z,68.29
2022-10-13T22:01:00.458Z,68.65
2022-10-13T22:03:02.186Z,68.64
2022-10-13T22:05:04.163Z,68.99
2022-10-13T22:07:06.225Z,68.55
2022-10-13T22:09:12.264Z,68.93
2022-10-13T22:11:15.694Z,69.21
2022-10-13T22:13:17.323Z,68.93
2022-10-13T22:15:18.936Z,69.28
2022-10-13T22:17:20.960Z,68.83
2022-10-13T22:19:23.139Z,68.65
2022-10-13T22:21:31.407Z,68.84
2022-10-13T22:23:33.110Z,68.93
2022-10-13T22:25:34.832Z,69.20
2022-10-13T22:27:36.464Z,68.74
2022-10-13T22:29:38.133Z,69.18
2022-10-13T22:31:39.807Z,69.20
2022-10-13T22:33:43.038Z,69.46
2022-10-13T22:35:46.757Z,69.42
2022-10-13T22:37:48.412Z,69.37
2022-10-13T22:39:51.777Z,69.16
2022-10-13T22:41:53.680Z,69.33
2022-10-13T22:43:58.083Z,69.71
2022-10-13T22:46:01.983Z,69.70
2022-10-13T22:48:03.875Z,69.32
2022-10-13T22:50:05.878Z,69.26
2022-10-13T22:52:07.527Z,69.86
2022-10-13T22:54:09.953Z,69.31
2022-10-13T22:56:14.754Z,69.04
2022-10-13T22:58:16.400Z,68.98
2022-10-13T23:00:18.272Z,68.73
2022-10-13T23:02:19.931Z,67.59
2022-10-13T23:04:21.576Z,67.84
2022-10-13T23:06:27.508Z,68.00
2022-10-13T23:08:29.448Z,68.04
2022-10-13T23:10:31.055Z,68.35
2022-10-13T23:12:32.793Z,68.11
2022-10-13T23:14:34.446Z,68.42
2022-10-13T23:16:36.471Z,68.55
2022-10-13T23:18:39.290Z,68.51
2022-10-13T23:20:42.270Z,68.02
2022-10-13T23:22:43.920Z,68.26
2022-10-13T23:24:45.585Z,68.81
2022-10-13T23:26:47.289Z,68.40
2022-10-13T23:28:48.956Z,68.20
2022-10-13T23:30:50.690Z,68.57
2022-10-13T23:32:54.719Z,68.50
2022-10-13T23:34:56.406Z,68.76
2022-10-13T23:36:58.076Z,69.08
2022-10-13T23:39:06.979Z,68.95
2022-10-13T23:41:11.474Z,68.53
2022-10-13T23:43:13.145Z,68.69
2022-10-13T23:45:14.802Z,68.51
2022-10-13T23:47:16.513Z,68.36
2022-10-13T23:49:18.159Z,68.77
2022-10-13T23:51:23.186Z,68.35
2022-10-13T23:53:24.889Z,68.35
2022-10-13T23:55:26.624Z,68.38
2022-10-13T23:57:29.855Z,68.76
2022-10-13T23:59:31.607Z,68.28
